Terminal Aerodrome Forecast
Issued by NWS Milwaukee/Sullivan, WI

Home | Current Version | Previous Version | Text Only | Print | Product List | Glossary On
Versions: 1 2 3 4 5 6 7 8 9 10 11 12 13 14 15 16 17 18 19 20 21 22 23 24 25 26 27 28 29 30
000
FTUS43 KMKX 130520
TAFMKE
TAF
KMKE 130520Z 1306/1412 VRB04KT P6SM -SHSN BKN060
     FM131100 17008KT 4SM -SN OVC040
     FM131300 16010KT 3SM -SN OVC035
     FM131800 20008KT 2SM -SN OVC025
     FM132100 33009KT 4SM -SN OVC015
     FM140000 02012G22KT 3SM -SN OVC015
     FM140100 02013KT 4SM -SN OVC015
     FM140400 02013KT P6SM OVC020=

USA.gov is the U.S. government's official web portal to all federal, state and local government web resources and services.